Time;durP1;ratioP1;P1;durP2;ratioP2;P2;SDS_P1;SDS_P2;PMS_P1;PMS_P2;Temp;Humidity;BMP_temperature;BMP_pressure;BME280_temperature;BME280_humidity;BME280_pressure;Samples;Min_cycle;Max_cycle;Signal;HPM_P1;HPM_P2
2024/03/07 00:01:09;;;;;;;118.47;42.58;;;;;;;4.79;100.00;98496.03;5094115;27;20043;-60
2024/03/07 00:03:35;;;;;;;131.15;41.67;;;;;;;4.75;100.00;98495.94;5094929;27;20032;-59
2024/03/07 00:06:00;;;;;;;117.22;41.35;;;;;;;4.56;100.00;98493.69;5093786;27;20079;-60
2024/03/07 00:08:26;;;;;;;118.75;38.92;;;;;;;4.63;100.00;98491.28;5095001;27;20150;-57
2024/03/07 00:10:51;;;;;;;140.98;43.20;;;;;;;4.73;100.00;98488.16;5092653;27;20414;-61
2024/03/07 00:13:17;;;;;;;103.15;38.95;;;;;;;4.57;100.00;98494.56;5094491;27;20498;-58
2024/03/07 00:15:42;;;;;;;108.20;41.03;;;;;;;4.33;100.00;98486.97;5094800;27;20027;-60
2024/03/07 00:18:07;;;;;;;121.60;59.03;;;;;;;4.46;100.00;98490.81;5096032;27;20463;-58
2024/03/07 00:20:33;;;;;;;107.95;51.05;;;;;;;4.61;100.00;98491.25;5094476;27;20144;-61
2024/03/07 00:22:58;;;;;;;129.05;36.28;;;;;;;4.40;100.00;98489.78;5094417;27;20433;-57
2024/03/07 00:25:23;;;;;;;111.40;38.97;;;;;;;4.67;100.00;98490.53;5095498;27;20411;-59
2024/03/07 00:27:52;;;;;;;107.93;35.22;;;;;;;4.54;100.00;98497.06;5095442;27;20070;-60
2024/03/07 00:30:18;;;;;;;97.13;36.10;;;;;;;4.50;100.00;98487.50;5095189;27;20448;-60
2024/03/07 00:32:44;;;;;;;98.65;35.35;;;;;;;4.84;100.00;98484.97;5096407;27;20019;-60
2024/03/07 00:35:10;;;;;;;107.95;39.38;;;;;;;4.55;100.00;98491.94;5092667;27;20027;-60
2024/03/07 00:37:36;;;;;;;83.18;35.22;;;;;;;4.85;100.00;98482.44;5094060;27;20509;-58
2024/03/07 00:40:01;;;;;;;159.70;39.22;;;;;;;5.06;100.00;98487.31;5092526;27;20019;-59
2024/03/07 00:42:27;;;;;;;112.97;42.30;;;;;;;4.82;100.00;98479.78;5095604;27;20031;-60
2024/03/07 00:44:52;;;;;;;126.22;36.28;;;;;;;5.05;100.00;98479.56;5092898;27;20505;-57
2024/03/07 00:47:18;;;;;;;101.40;36.15;;;;;;;5.14;100.00;98479.78;5094524;27;20519;-62
2024/03/07 00:49:46;;;;;;;93.38;31.20;;;;;;;5.09;100.00;98476.22;5095360;27;20099;-59
2024/03/07 00:52:12;;;;;;;93.05;26.38;;;;;;;4.98;100.00;98468.22;5093014;27;20039;-61
2024/03/07 00:54:37;;;;;;;92.07;34.47;;;;;;;5.17;100.00;98476.41;5093967;27;20335;-59
2024/03/07 00:57:02;;;;;;;124.68;35.20;;;;;;;5.07;100.00;98470.13;5094517;27;20358;-58
2024/03/07 00:59:28;;;;;;;103.22;32.10;;;;;;;5.61;100.00;98470.66;5095319;27;20065;-60
2024/03/07 01:01:53;;;;;;;108.88;25.55;;;;;;;5.74;100.00;98471.78;5095516;27;20102;-59
2024/03/07 01:04:19;;;;;;;92.78;29.48;;;;;;;5.46;100.00;98469.41;5093552;27;20451;-59
2024/03/07 01:06:44;;;;;;;90.10;25.38;;;;;;;4.91;100.00;98471.44;5093475;27;20071;-59
2024/03/07 01:09:14;;;;;;;83.72;32.67;;;;;;;5.11;100.00;98464.22;5094751;27;20032;-61
2024/03/07 01:11:44;;;;;;;106.57;30.50;;;;;;;4.24;100.00;98467.88;5094273;27;20459;-60
2024/03/07 01:14:10;;;;;;;85.38;26.20;;;;;;;4.65;100.00;98462.16;5093388;27;20023;-59
2024/03/07 01:16:35;;;;;;;93.18;20.80;;;;;;;5.14;100.00;98466.00;5094909;27;20043;-60
2024/03/07 01:19:01;;;;;;;134.73;31.02;;;;;;;5.16;100.00;98469.53;5092344;27;20126;-59
2024/03/07 01:21:27;;;;;;;90.72;29.88;;;;;;;4.73;100.00;98469.22;5093278;27;20492;-60
2024/03/07 01:23:52;;;;;;;119.75;36.60;;;;;;;4.92;100.00;98466.31;5092166;28;20127;-58
2024/03/07 01:26:17;;;;;;;90.57;21.98;;;;;;;5.00;100.00;98460.47;5095669;27;20043;-58
2024/03/07 01:28:43;;;;;;;84.32;23.27;;;;;;;5.32;100.00;98461.34;5094426;27;20022;-60
2024/03/07 01:31:10;;;;;;;143.85;29.90;;;;;;;4.65;100.00;98459.59;5092433;27;20475;-60
2024/03/07 01:33:35;;;;;;;103.30;22.27;;;;;;;4.66;100.00;98463.03;5092530;28;20024;-60
2024/03/07 01:36:01;;;;;;;118.00;23.73;;;;;;;5.14;100.00;98453.13;5094219;27;20084;-59
2024/03/07 01:38:26;;;;;;;115.78;45.22;;;;;;;4.91;100.00;98448.25;5094471;27;20045;-60
2024/03/07 01:40:51;;;;;;;92.20;32.92;;;;;;;4.52;100.00;98442.91;5093657;27;20072;-58
2024/03/07 01:43:17;;;;;;;99.57;44.97;;;;;;;4.80;100.00;98447.94;5094647;28;20032;-58
2024/03/07 01:45:42;;;;;;;98.05;23.60;;;;;;;4.98;100.00;98445.00;5092768;27;20066;-59
2024/03/07 01:48:09;;;;;;;124.57;33.03;;;;;;;5.24;100.00;98442.22;5094577;28;20403;-58
2024/03/07 01:50:38;;;;;;;95.00;35.42;;;;;;;5.15;100.00;98440.28;5091571;27;20071;-61
2024/03/07 01:53:06;;;;;;;138.45;35.47;;;;;;;4.91;100.00;98438.81;5094462;28;20019;-57
2024/03/07 01:55:32;;;;;;;104.85;47.75;;;;;;;4.76;100.00;98435.81;5094845;27;20460;-59
2024/03/07 01:58:02;;;;;;;122.80;40.88;;;;;;;4.66;100.00;98435.56;5093407;28;20491;-58
2024/03/07 02:00:28;;;;;;;143.52;94.63;;;;;;;4.64;100.00;98429.47;5092596;27;20019;-60
2024/03/07 02:02:53;;;;;;;101.95;43.08;;;;;;;4.61;100.00;98433.69;5092813;28;20016;-57
2024/03/07 02:05:20;;;;;;;99.22;28.48;;;;;;;4.38;100.00;98428.78;5092981;28;20028;-60
2024/03/07 02:07:46;;;;;;;88.55;28.08;;;;;;;4.56;100.00;98425.81;5094853;28;20422;-60
2024/03/07 02:10:11;;;;;;;117.88;25.73;;;;;;;4.36;100.00;98422.69;5092504;27;20527;-58
2024/03/07 02:12:36;;;;;;;108.88;45.13;;;;;;;4.24;100.00;98424.09;5093558;28;20100;-57
2024/03/07 02:15:02;;;;;;;141.32;48.85;;;;;;;3.97;100.00;98425.00;5091686;27;20045;-60
2024/03/07 02:17:28;;;;;;;147.75;106.68;;;;;;;3.87;100.00;98423.84;5092516;27;20043;-59
2024/03/07 02:19:53;;;;;;;148.10;28.17;;;;;;;3.85;100.00;98414.34;5092625;28;20020;-57
2024/03/07 02:22:19;;;;;;;90.22;32.25;;;;;;;4.02;100.00;98414.88;5096512;27;20329;-58
2024/03/07 02:24:46;;;;;;;129.75;84.63;;;;;;;3.84;100.00;98420.31;5094925;28;20020;-57
2024/03/07 02:27:12;;;;;;;132.20;26.70;;;;;;;3.90;100.00;98417.94;5091072;27;20078;-60
2024/03/07 02:29:37;;;;;;;105.53;38.63;;;;;;;3.78;100.00;98414.16;5092920;28;20667;-58
2024/03/07 02:32:03;;;;;;;120.40;38.95;;;;;;;3.66;100.00;98413.78;5090475;28;20354;-61
2024/03/07 02:34:29;;;;;;;120.82;41.78;;;;;;;3.66;100.00;98406.06;5095644;28;20447;-58
2024/03/07 02:36:54;;;;;;;106.80;50.65;;;;;;;3.53;100.00;98409.09;5093035;27;20254;-61
2024/03/07 02:39:20;;;;;;;90.88;30.60;;;;;;;3.44;100.00;98407.97;5094767;27;20444;-59
2024/03/07 02:41:47;;;;;;;87.18;25.13;;;;;;;3.30;100.00;98404.09;5095905;27;20027;-61
2024/03/07 02:44:13;;;;;;;152.73;63.38;;;;;;;3.29;100.00;98397.16;5096536;27;20027;-60
2024/03/07 02:46:38;;;;;;;119.65;63.10;;;;;;;3.18;100.00;98399.38;5094525;27;20032;-58
2024/03/07 02:49:04;;;;;;;116.18;36.65;;;;;;;3.19;100.00;98402.03;5096477;27;20565;-59
2024/03/07 02:51:29;;;;;;;79.10;19.58;;;;;;;3.12;100.00;98400.09;5095850;27;20550;-58
2024/03/07 02:53:55;;;;;;;136.73;82.00;;;;;;;3.12;100.00;98397.53;5096190;27;20550;-58
2024/03/07 02:56:20;;;;;;;211.18;186.55;;;;;;;3.13;100.00;98404.41;5095446;27;20060;-58
2024/03/07 02:58:45;;;;;;;100.00;39.97;;;;;;;3.21;100.00;98394.34;5097764;27;20015;-59
2024/03/07 03:01:11;;;;;;;149.43;40.92;;;;;;;3.09;100.00;98407.69;5096008;27;20398;-57
2024/03/07 03:03:37;;;;;;;146.77;70.68;;;;;;;2.88;100.00;98406.13;5095652;27;20036;-60
2024/03/07 03:06:03;;;;;;;153.27;61.58;;;;;;;3.07;100.00;98404.19;5094875;27;20051;-60
2024/03/07 03:08:28;;;;;;;122.05;46.60;;;;;;;2.89;100.00;98400.16;5096816;27;20398;-60
2024/03/07 03:10:54;;;;;;;118.57;74.07;;;;;;;2.88;100.00;98402.69;5096636;27;20032;-58
2024/03/07 03:13:20;;;;;;;113.70;56.65;;;;;;;2.70;100.00;98408.94;5096628;27;20257;-57
2024/03/07 03:15:46;;;;;;;196.13;131.93;;;;;;;2.80;100.00;98405.88;5096814;27;20066;-60
2024/03/07 03:18:12;;;;;;;220.18;171.98;;;;;;;2.77;100.00;98410.03;5096256;27;20035;-58
2024/03/07 03:20:42;;;;;;;79.75;15.45;;;;;;;2.73;100.00;98402.22;5096087;27;20034;-61
2024/03/07 03:23:13;;;;;;;91.18;23.67;;;;;;;2.73;100.00;98406.47;5097121;27;20110;-60
2024/03/07 03:25:38;;;;;;;79.07;22.00;;;;;;;2.69;100.00;98405.50;5096682;27;20032;-58
2024/03/07 03:28:05;;;;;;;114.82;21.70;;;;;;;2.87;100.00;98404.41;5096066;27;20104;-58
2024/03/07 03:30:32;;;;;;;103.70;38.95;;;;;;;2.99;100.00;98404.81;5095763;27;20042;-59
2024/03/07 03:32:58;;;;;;;148.23;84.18;;;;;;;2.92;100.00;98405.41;5099002;27;20028;-59
2024/03/07 03:35:23;;;;;;;141.88;52.30;;;;;;;2.81;100.00;98401.59;5096163;27;20038;-58
2024/03/07 03:37:48;;;;;;;140.23;70.47;;;;;;;3.15;100.00;98400.16;5098039;27;20519;-58
2024/03/07 03:40:14;;;;;;;134.10;34.33;;;;;;;3.20;100.00;98408.91;5095470;27;20126;-59
2024/03/07 03:42:41;;;;;;;125.70;36.60;;;;;;;3.40;100.00;98406.13;5096805;27;20558;-60
2024/03/07 03:45:08;;;;;;;112.53;23.70;;;;;;;3.24;100.00;98405.59;5095084;27;20031;-59
2024/03/07 03:47:38;;;;;;;67.45;19.75;;;;;;;3.19;100.00;98403.75;5096213;27;20035;-57
2024/03/07 03:50:04;;;;;;;167.32;29.35;;;;;;;3.31;100.00;98405.81;5094635;27;20166;-59
2024/03/07 03:52:30;;;;;;;93.78;32.60;;;;;;;3.30;100.00;98409.22;5093983;27;20055;-60
2024/03/07 03:54:56;;;;;;;111.93;25.23;;;;;;;3.35;100.00;98397.38;5095831;27;20033;-58
2024/03/07 03:57:22;;;;;;;94.20;25.17;;;;;;;3.65;100.00;98399.19;5095123;27;20031;-60
2024/03/07 03:59:48;;;;;;;87.97;21.20;;;;;;;3.38;100.00;98402.63;5098925;27;20027;-60
2024/03/07 04:02:13;;;;;;;146.77;27.02;;;;;;;3.50;100.00;98391.84;5095404;27;20062;-60
2024/03/07 04:04:42;;;;;;;102.30;27.95;;;;;;;3.54;100.00;98400.53;5095975;27;20066;-59
2024/03/07 04:07:07;;;;;;;126.72;30.30;;;;;;;3.39;100.00;98392.38;5094290;27;20035;-59
2024/03/07 04:09:32;;;;;;;113.30;27.00;;;;;;;3.51;100.00;98394.47;5096819;27;20423;-57
2024/03/07 04:11:59;;;;;;;82.18;24.38;;;;;;;3.80;100.00;98400.47;5093522;27;20084;-60
2024/03/07 04:14:24;;;;;;;101.18;53.88;;;;;;;3.87;100.00;98398.13;5096772;27;20035;-59
2024/03/07 04:16:50;;;;;;;103.47;24.60;;;;;;;4.27;100.00;98397.56;5095267;27;20031;-59
2024/03/07 04:19:15;;;;;;;126.75;24.27;;;;;;;4.53;100.00;98400.00;5094654;27;20498;-59
2024/03/07 04:21:41;;;;;;;82.57;21.65;;;;;;;4.21;100.00;98400.81;5095021;27;20062;-58
2024/03/07 04:24:07;;;;;;;130.57;29.20;;;;;;;4.47;100.00;98399.81;5093863;27;20031;-61
2024/03/07 04:26:32;;;;;;;87.22;25.23;;;;;;;4.65;100.00;98404.59;5095543;27;20035;-61
2024/03/07 04:28:58;;;;;;;86.47;26.90;;;;;;;4.64;100.00;98395.13;5096397;27;20089;-58
2024/03/07 04:31:23;;;;;;;129.10;27.55;;;;;;;4.71;100.00;98404.75;5093836;27;20818;-57
2024/03/07 04:33:48;;;;;;;106.97;31.45;;;;;;;4.52;100.00;98401.69;5096690;27;20103;-58
2024/03/07 04:36:14;;;;;;;141.02;28.17;;;;;;;4.88;100.00;98400.06;5093304;27;20093;-61
2024/03/07 04:38:44;;;;;;;107.68;29.67;;;;;;;3.89;100.00;98406.78;5094665;27;20646;-61
2024/03/07 04:41:11;;;;;;;122.28;25.98;;;;;;;4.37;100.00;98403.81;5093096;27;20419;-58
2024/03/07 04:43:36;;;;;;;104.00;22.73;;;;;;;4.71;100.00;98404.75;5093804;27;20243;-58
2024/03/07 04:46:02;;;;;;;79.07;26.92;;;;;;;4.38;100.00;98405.59;5092844;27;20048;-58
2024/03/07 04:48:27;;;;;;;84.90;24.88;;;;;;;4.33;100.00;98405.44;5094905;27;20019;-58
2024/03/07 04:50:53;;;;;;;111.60;24.98;;;;;;;4.55;100.00;98413.78;5093818;27;20035;-60
2024/03/07 04:53:18;;;;;;;139.25;30.75;;;;;;;4.36;100.00;98413.28;5095105;27;20041;-60
2024/03/07 04:55:43;;;;;;;75.35;21.95;;;;;;;4.26;100.00;98411.25;5094311;27;20043;-59
2024/03/07 04:58:09;;;;;;;117.18;29.10;;;;;;;3.91;100.00;98410.25;5093441;27;20039;-58
2024/03/07 05:00:34;;;;;;;91.57;25.02;;;;;;;3.10;100.00;98412.88;5092667;27;20036;-58
2024/03/07 05:02:59;;;;;;;82.20;18.65;;;;;;;3.93;100.00;98418.03;5096521;27;20674;-59
2024/03/07 05:05:26;;;;;;;112.68;26.90;;;;;;;4.19;100.00;98412.75;5091480;27;20043;-58
2024/03/07 05:07:52;;;;;;;88.20;25.08;;;;;;;4.11;100.00;98411.66;5096382;27;20020;-61
2024/03/07 05:10:18;;;;;;;106.10;28.27;;;;;;;3.72;100.00;98424.28;5092051;27;20038;-60
2024/03/07 05:12:43;;;;;;;106.68;26.17;;;;;;;3.64;100.00;98412.88;5095498;27;20450;-59
2024/03/07 05:15:11;;;;;;;107.38;26.23;;;;;;;3.82;100.00;98416.84;5091994;27;20516;-59
2024/03/07 05:17:38;;;;;;;76.13;25.40;;;;;;;3.68;100.00;98411.25;5094333;27;20197;-60
2024/03/07 05:20:09;;;;;;;116.38;21.33;;;;;;;3.83;100.00;98416.00;5092384;27;20039;-62
2024/03/07 05:22:40;;;;;;;75.90;23.38;;;;;;;4.16;100.00;98416.13;5095443;28;20043;-59
2024/03/07 05:25:06;;;;;;;102.32;25.70;;;;;;;4.25;100.00;98415.53;5091729;27;20028;-61
2024/03/07 05:27:33;;;;;;;79.93;27.52;;;;;;;4.33;100.00;98425.16;5093531;27;20140;-60
2024/03/07 05:29:58;;;;;;;102.35;23.25;;;;;;;4.35;100.00;98423.53;5092100;28;20089;-60
2024/03/07 05:32:25;;;;;;;97.07;25.45;;;;;;;3.96;100.00;98433.56;5092542;28;20040;-61
2024/03/07 05:34:53;;;;;;;83.65;25.95;;;;;;;3.46;100.00;98429.44;5094821;27;20028;-60
2024/03/07 05:37:21;;;;;;;119.10;28.27;;;;;;;3.28;100.00;98424.59;5092671;27;20049;-60
2024/03/07 05:39:47;;;;;;;93.40;23.35;;;;;;;2.79;100.00;98427.28;5095256;27;20034;-59
2024/03/07 05:42:14;;;;;;;112.30;25.35;;;;;;;2.74;100.00;98426.22;5093065;27;20086;-58
2024/03/07 05:44:41;;;;;;;108.10;20.50;;;;;;;3.42;100.00;98430.19;5095006;28;20031;-58
2024/03/07 05:47:07;;;;;;;94.65;45.22;;;;;;;3.82;100.00;98424.56;5092808;27;20054;-60
2024/03/07 05:49:33;;;;;;;91.78;22.92;;;;;;;3.85;100.00;98424.63;5095800;28;20027;-59
2024/03/07 05:51:58;;;;;;;94.80;18.88;;;;;;;3.69;100.00;98431.00;5093747;27;20039;-59
2024/03/07 05:54:23;;;;;;;109.10;23.02;;;;;;;3.73;100.00;98430.28;5091861;28;20032;-58
2024/03/07 05:56:50;;;;;;;83.88;18.55;;;;;;;3.90;100.00;98428.25;5095498;27;20134;-61
2024/03/07 05:59:16;;;;;;;128.80;19.35;;;;;;;4.59;100.00;98425.91;5093115;28;20568;-60
2024/03/07 06:01:42;;;;;;;71.10;19.63;;;;;;;4.67;100.00;98420.97;5091021;28;20309;-59
2024/03/07 06:04:10;;;;;;;81.25;24.05;;;;;;;4.67;100.00;98423.53;5092092;28;20065;-59
2024/03/07 06:06:36;;;;;;;98.22;26.20;;;;;;;4.47;100.00;98417.84;5094063;27;20032;-59
2024/03/07 06:09:07;;;;;;;80.07;26.02;;;;;;;4.35;100.00;98413.22;5096358;28;20096;-59
2024/03/07 06:11:41;;;;;;;74.55;24.35;;;;;;;4.22;100.00;98415.44;5093733;27;20710;-62
2024/03/07 06:14:08;;;;;;;72.80;15.73;;;;;;;3.93;100.00;98418.03;5099447;28;20349;-58
2024/03/07 06:16:35;;;;;;;99.60;65.43;;;;;;;3.86;100.00;98421.25;5099412;27;20097;-60
2024/03/07 06:19:02;;;;;;;115.55;29.23;;;;;;;4.51;100.00;98412.81;5093869;27;20062;-58
2024/03/07 06:21:28;;;;;;;87.28;29.00;;;;;;;4.25;100.00;98414.66;5098022;27;20422;-59
2024/03/07 06:23:59;;;;;;;95.47;24.55;;;;;;;4.68;100.00;98422.72;5098473;27;20398;-60
2024/03/07 06:29:13;;;;;;;84.97;22.38;;;;;;;5.51;100.00;98423.09;5094831;27;20031;-60
2024/03/07 06:31:39;;;;;;;81.68;27.45;;;;;;;5.53;100.00;98413.66;5096143;27;20129;-61
2024/03/07 06:34:04;;;;;;;81.55;25.08;;;;;;;5.60;100.00;98413.00;5097863;27;20028;-58
2024/03/07 06:36:29;;;;;;;106.32;33.83;;;;;;;5.25;100.00;98418.16;5095100;27;20040;-59
2024/03/07 06:38:55;;;;;;;94.82;26.17;;;;;;;5.60;100.00;98420.72;5097332;27;20024;-58
2024/03/07 06:41:20;;;;;;;107.22;26.20;;;;;;;5.58;100.00;98412.09;5110568;27;20043;-59
2024/03/07 06:43:46;;;;;;;137.23;32.95;;;;;;;5.15;100.00;98418.75;5095507;27;20035;-61
2024/03/07 06:46:12;;;;;;;85.72;29.73;;;;;;;4.80;100.00;98420.47;5095782;27;20043;-63
2024/03/07 06:48:40;;;;;;;97.35;52.33;;;;;;;5.37;100.00;98421.88;5096583;27;20418;-59
2024/03/07 06:51:05;;;;;;;112.65;26.92;;;;;;;5.28;100.00;98422.53;5096769;27;20036;-61
2024/03/07 06:53:30;;;;;;;76.93;18.15;;;;;;;5.45;100.00;98421.25;5094847;27;20406;-62
2024/03/07 06:55:56;;;;;;;88.88;30.42;;;;;;;5.19;100.00;98418.00;5097249;27;20039;-59
2024/03/07 06:58:22;;;;;;;144.43;36.90;;;;;;;4.82;100.00;98423.97;5096096;27;20299;-62
2024/03/07 07:00:49;;;;;;;86.95;22.10;;;;;;;6.00;100.00;98427.63;5096655;27;20380;-63
2024/03/07 07:03:15;;;;;;;111.60;34.30;;;;;;;6.45;100.00;98427.72;5096696;27;20407;-61
2024/03/07 07:05:44;;;;;;;102.00;27.60;;;;;;;5.53;100.00;98424.00;5095603;27;20086;-60
2024/03/07 07:08:10;;;;;;;125.32;82.07;;;;;;;5.73;100.00;98426.19;5096885;27;20475;-60
2024/03/07 07:10:36;;;;;;;116.72;59.20;;;;;;;6.45;100.00;98433.78;5097589;27;20616;-61
2024/03/07 07:13:04;;;;;;;141.63;89.32;;;;;;;8.71;100.00;98437.34;5096862;27;20391;-63
2024/03/07 07:15:29;;;;;;;125.03;29.15;;;;;;;10.40;100.00;98446.47;5095506;27;20040;-61
2024/03/07 07:17:55;;;;;;;113.18;38.83;;;;;;;9.93;100.00;98448.81;5096642;27;20023;-61
2024/03/07 07:20:20;;;;;;;113.03;40.85;;;;;;;9.17;100.00;98430.88;5095330;27;20033;-62
2024/03/07 07:22:47;;;;;;;71.78;20.77;;;;;;;8.91;100.00;98431.50;5097734;27;20380;-62
2024/03/07 07:25:16;;;;;;;94.35;25.13;;;;;;;11.21;100.00;98428.50;5095482;27;20824;-61
2024/03/07 07:27:45;;;;;;;61.53;19.45;;;;;;;12.02;100.00;98399.78;5097005;27;20024;-62
2024/03/07 07:30:13;;;;;;;94.43;62.42;;;;;;;13.08;100.00;98394.13;5097977;27;20059;-60
2024/03/07 07:32:39;;;;;;;141.98;85.20;;;;;;;13.60;100.00;98378.94;5096931;27;20495;-60
2024/03/07 07:35:11;;;;;;;131.25;108.28;;;;;;;17.48;100.00;98371.50;5097560;27;20480;-61
2024/03/07 07:37:51;;;;;;;122.25;76.97;;;;;;;17.36;83.98;98367.41;5097803;27;20019;-62
2024/03/07 07:40:18;;;;;;;85.85;27.67;;;;;;;18.18;57.46;98367.03;5095059;27;20263;-64
2024/03/07 07:42:46;;;;;;;68.15;19.52;;;;;;;18.26;53.23;98369.44;5095425;27;20019;-59
2024/03/07 07:45:12;;;;;;;69.32;31.88;;;;;;;18.73;50.31;98365.44;5095308;27;20107;-62
2024/03/07 07:47:43;;;;;;;73.22;41.03;;;;;;;21.25;70.72;98358.38;5096502;27;20559;-61
2024/03/07 07:50:13;;;;;;;117.55;53.05;;;;;;;21.28;49.04;98362.69;5094867;27;20027;-62
2024/03/07 07:52:43;;;;;;;64.25;22.50;;;;;;;21.43;43.74;98351.47;5095692;27;20050;-61
2024/03/07 07:55:14;;;;;;;53.75;22.55;;;;;;;19.37;44.71;98350.28;5093316;27;20039;-60
2024/03/07 07:57:44;;;;;;;53.08;19.58;;;;;;;21.67;46.49;98359.28;5095169;27;20055;-62
2024/03/07 08:00:23;;;;;;;63.35;19.95;;;;;;;21.38;50.59;98353.44;5094918;27;20027;-61
2024/03/07 08:02:53;;;;;;;91.43;56.38;;;;;;;15.88;48.80;98365.28;5097292;27;20019;-60
2024/03/07 08:05:20;;;;;;;90.68;25.52;;;;;;;14.33;72.78;98366.81;5095329;27;20511;-61
2024/03/07 08:07:47;;;;;;;92.40;21.50;;;;;;;14.44;98.41;98362.28;5096479;27;20019;-60
2024/03/07 08:10:13;;;;;;;130.40;77.32;;;;;;;12.67;74.71;98366.53;5095613;27;20028;-60
2024/03/07 08:12:41;;;;;;;108.70;44.28;;;;;;;12.14;99.45;98372.84;5095226;27;20107;-61
2024/03/07 08:15:06;;;;;;;88.03;18.92;;;;;;;12.07;94.04;98369.38;5094247;27;20015;-60
2024/03/07 08:17:31;;;;;;;118.00;21.30;;;;;;;10.60;91.99;98362.47;5094226;27;20414;-61
2024/03/07 08:19:57;;;;;;;104.38;27.58;;;;;;;9.79;100.00;98370.75;5095109;27;20035;-62
2024/03/07 08:22:24;;;;;;;134.38;22.42;;;;;;;10.47;100.00;98374.59;5093910;27;20040;-62
2024/03/07 08:24:49;;;;;;;78.45;19.63;;;;;;;9.85;100.00;98362.16;5095065;27;20031;-61
2024/03/07 08:27:15;;;;;;;82.55;17.83;;;;;;;10.25;100.00;98362.31;5096900;27;20032;-63
2024/03/07 08:29:40;;;;;;;76.65;15.52;;;;;;;9.89;100.00;98369.97;5095860;27;20031;-61
2024/03/07 08:32:06;;;;;;;79.10;21.95;;;;;;;9.41;100.00;98364.47;5095888;27;20216;-60
2024/03/07 08:34:31;;;;;;;120.93;22.95;;;;;;;9.25;100.00;98364.34;5094168;28;20027;-63
2024/03/07 08:36:57;;;;;;;90.38;16.95;;;;;;;9.63;100.00;98360.31;5094968;27;20338;-61
2024/03/07 08:39:23;;;;;;;117.65;20.65;;;;;;;9.36;100.00;98366.16;5094303;27;20023;-61
2024/03/07 08:41:48;;;;;;;65.22;15.60;;;;;;;9.53;100.00;98357.63;5094486;27;20292;-60
2024/03/07 08:44:13;;;;;;;82.90;15.50;;;;;;;9.84;100.00;98360.41;5095188;27;20024;-63
2024/03/07 08:46:39;;;;;;;74.43;16.02;;;;;;;10.08;100.00;98359.66;5095238;27;20035;-60
2024/03/07 08:49:05;;;;;;;77.15;14.60;;;;;;;9.46;100.00;98365.38;5097028;27;20024;-62
2024/03/07 08:51:30;;;;;;;134.15;26.58;;;;;;;9.81;100.00;98366.47;5091459;27;20043;-62
2024/03/07 08:53:56;;;;;;;78.82;17.95;;;;;;;9.07;100.00;98365.06;5096361;27;20038;-61
2024/03/07 08:56:22;;;;;;;123.88;18.92;;;;;;;9.95;100.00;98358.72;5095267;27;20038;-61
2024/03/07 08:58:47;;;;;;;92.30;15.85;;;;;;;9.44;100.00;98364.50;5095576;27;20144;-62
2024/03/07 09:01:12;;;;;;;87.97;16.15;;;;;;;9.63;100.00;98367.22;5095086;27;20032;-60
2024/03/07 09:03:38;;;;;;;89.03;17.15;;;;;;;9.80;100.00;98356.06;5094847;27;20034;-60
2024/03/07 09:06:04;;;;;;;70.85;14.00;;;;;;;8.68;100.00;98363.81;5095492;27;20032;-59
2024/03/07 09:08:29;;;;;;;106.85;20.92;;;;;;;9.38;100.00;98360.13;5093972;27;20027;-62
2024/03/07 09:10:55;;;;;;;92.15;18.55;;;;;;;9.86;100.00;98356.97;5093838;27;20032;-59
2024/03/07 09:13:21;;;;;;;82.30;16.23;;;;;;;9.83;100.00;98364.72;5094427;27;20019;-62
2024/03/07 09:15:46;;;;;;;78.63;15.43;;;;;;;9.83;100.00;98359.53;5094960;27;20111;-60
2024/03/07 09:18:12;;;;;;;113.10;41.90;;;;;;;9.07;100.00;98359.88;5095213;27;20039;-59
2024/03/07 09:20:38;;;;;;;163.20;112.40;;;;;;;9.75;100.00;98358.63;5092988;28;20033;-62
2024/03/07 09:23:03;;;;;;;92.97;17.02;;;;;;;9.37;100.00;98363.59;5094389;27;20080;-61
2024/03/07 09:25:32;;;;;;;157.63;30.75;;;;;;;9.53;100.00;98357.63;5099385;27;20638;-62
2024/03/07 09:28:00;;;;;;;82.75;16.45;;;;;;;9.82;100.00;98354.31;5118233;27;20050;-60
2024/03/07 09:30:27;;;;;;;131.48;29.60;;;;;;;9.93;100.00;98352.66;5116304;27;20061;-60
2024/03/07 09:32:54;;;;;;;199.52;99.63;;;;;;;9.33;100.00;98361.81;5116678;27;20555;-62
2024/03/07 09:35:21;;;;;;;170.70;103.50;;;;;;;8.52;100.00;98353.25;5113219;27;20023;-60
2024/03/07 09:37:46;;;;;;;216.43;148.60;;;;;;;8.48;100.00;98364.44;5117401;27;20011;-63
2024/03/07 09:40:12;;;;;;;131.73;35.90;;;;;;;9.09;100.00;98354.69;5114644;27;20027;-63
2024/03/07 09:42:45;;;;;;;375.33;231.30;;;;;;;9.18;100.00;98343.53;5116050;27;20035;-62
2024/03/07 09:45:14;;;;;;;120.43;21.30;;;;;;;9.27;100.00;98358.31;5113486;27;20418;-60
2024/03/07 09:47:40;;;;;;;126.70;54.55;;;;;;;9.14;100.00;98360.81;5119319;27;20688;-62
2024/03/07 09:50:08;;;;;;;143.38;31.55;;;;;;;8.75;100.00;98352.66;5113666;27;20062;-62
2024/03/07 09:52:35;;;;;;;177.65;38.75;;;;;;;9.12;100.00;98352.13;5113193;27;20075;-61
2024/03/07 09:55:02;;;;;;;95.93;22.60;;;;;;;9.39;100.00;98348.00;5114974;27;20031;-60
2024/03/07 09:57:32;;;;;;;183.52;73.30;;;;;;;9.28;100.00;98347.06;5112502;27;20292;-61
2024/03/07 09:59:59;;;;;;;160.88;27.27;;;;;;;9.64;100.00;98354.25;5113609;27;20054;-63
2024/03/07 10:02:26;;;;;;;145.45;45.60;;;;;;;8.42;100.00;98347.09;5115458;27;20462;-59
2024/03/07 10:04:54;;;;;;;151.20;30.77;;;;;;;8.36;100.00;98340.97;5115454;27;20015;-61
2024/03/07 10:07:21;;;;;;;112.55;41.05;;;;;;;8.71;100.00;98336.22;5116691;27;20031;-60
2024/03/07 10:09:47;;;;;;;108.05;42.25;;;;;;;7.88;100.00;98351.63;5116076;27;20502;-60
2024/03/07 10:12:12;;;;;;;128.48;27.00;;;;;;;7.72;100.00;98342.78;5115624;27;20372;-59
2024/03/07 10:14:38;;;;;;;171.55;66.97;;;;;;;7.11;100.00;98349.63;5112444;27;20558;-63
2024/03/07 10:17:05;;;;;;;101.35;30.85;;;;;;;7.07;100.00;98347.84;5099412;27;20072;-62
2024/03/07 10:19:30;;;;;;;187.38;52.15;;;;;;;7.45;100.00;98341.56;5113202;27;20027;-61
2024/03/07 10:22:01;;;;;;;106.28;27.13;;;;;;;7.60;100.00;98336.59;5115356;27;20103;-61
2024/03/07 10:24:27;;;;;;;225.07;104.28;;;;;;;7.39;100.00;98340.59;5114055;27;20422;-62
2024/03/07 10:26:55;;;;;;;125.50;52.38;;;;;;;7.39;100.00;98340.59;5116166;27;20526;-62
2024/03/07 10:29:22;;;;;;;233.57;175.38;;;;;;;7.07;100.00;98343.56;5115610;27;20019;-60
2024/03/07 10:31:49;;;;;;;208.90;128.25;;;;;;;7.87;100.00;98342.13;5114483;27;20199;-60
2024/03/07 10:34:15;;;;;;;83.32;19.17;;;;;;;8.51;100.00;98328.19;5096654;27;20346;-61
2024/03/07 10:36:43;;;;;;;118.07;20.95;;;;;;;8.79;100.00;98338.88;5113960;27;20127;-62
2024/03/07 10:39:14;;;;;;;116.55;38.88;;;;;;;8.65;100.00;98335.28;5114718;27;20373;-61
2024/03/07 10:41:46;;;;;;;118.20;24.60;;;;;;;8.85;100.00;98332.88;5114064;27;20035;-62
2024/03/07 10:44:16;;;;;;;107.07;22.60;;;;;;;9.12;100.00;98328.75;5116072;27;20035;-62
2024/03/07 10:46:46;;;;;;;113.55;40.53;;;;;;;8.92;100.00;98333.78;5115523;27;20176;-60
2024/03/07 10:49:16;;;;;;;83.10;18.10;;;;;;;9.05;100.00;98329.59;5116894;27;20332;-60
2024/03/07 10:51:46;;;;;;;122.35;20.65;;;;;;;8.87;100.00;98325.97;5114794;27;20070;-61
2024/03/07 10:54:26;;;;;;;118.93;56.75;;;;;;;9.39;100.00;98324.63;5114567;27;20447;-64
2024/03/07 10:56:51;;;;;;;86.85;14.60;;;;;;;9.18;100.00;98321.03;5115242;27;20038;-62
2024/03/07 10:59:18;;;;;;;65.43;13.25;;;;;;;9.26;100.00;98323.69;5117671;27;20742;-63
2024/03/07 11:01:57;;;;;;;128.30;24.17;;;;;;;10.12;100.00;98316.34;5116503;27;20088;-62
2024/03/07 11:04:24;;;;;;;68.22;16.73;;;;;;;10.31;100.00;98317.28;5118738;27;20513;-62
2024/03/07 11:06:49;;;;;;;80.53;34.15;;;;;;;10.81;100.00;98302.66;5116861;27;20035;-61
2024/03/07 11:09:22;;;;;;;79.35;18.13;;;;;;;10.60;100.00;98306.13;5120507;27;20244;-61
2024/03/07 11:11:48;;;;;;;81.43;19.30;;;;;;;11.36;100.00;98297.44;5116673;27;20043;-60